Terminal Aerodrome Forecast
Issued by NWS Pueblo, CO

Home | Current Version | Previous Version | Text Only | Print | Product List | Glossary On
Versions: 1 2 3 4 5 6 7 8 9 10 11 12 13 14 15 16 17 18 19 20 21 22 23 24 25 26 27 28 29 30 31 32
000
FTUS45 KPUB 260520
TAFALS
TAF
KALS 260520Z 2606/2706 28009KT P6SM VCSH SCT070 BKN100
     FM260900 VRB06KT P6SM SCT080 SCT120
     FM262000 20009KT P6SM VCTS SCT060CB BKN120 PROB30 2622/2702
      VRB15G30KT -TSRA BKN060CB
     FM270400 35009KT P6SM VCSH SCT060 BKN090=

USA.gov is the U.S. government's official web portal to all federal, state and local government web resources and services.